Terminal Aerodrome Forecast
Issued by NWS Cleveland, OH

Home | Current Version | Previous Version | Text Only | Print | Product List | Glossary Off
Versions: 1 2 3 4 5 6 7 8 9 10 11 12

000
FTUS41 KCLE 260530
TAFMFD
TAF
KMFD 260530Z 2606/2706 28005KT P6SM SCT045 BKN250
     FM261000 VRB03KT 6SM BR SKC
      TEMPO 2610/2613 5SM BR
     FM261500 02007KT P6SM SCT040
     FM262200 VRB03KT P6SM SKC=

USA.gov is the U.S. government's official web portal to all federal, state and local government web resources and services.